Kenton, Kentucky
Current Conditions -  °F | °C
As of 6:53 AM on Thursday 27 Nov 2014 (Local Time) from KLUK Reporting Station
Overcast Overcast  
Wind Chill: 22°   Ceiling: 3200
Heat Index: 30°   Visibility: 8mi
Dew Point: 24°   Wind: 8mph
Humidity: 79%   Direction: 300°WNW
Pressure: 30.2"   Gusts: NA
Location:  38.87°N, 84.46°W
Report Text: KLUK 271153Z 30007KT 8SM OVC032 M01/M04 A3020 RMK AO2 SLP231 T10111044 11011 21017 53024
Loading
Personal Weather Stations






























Interactive Weather Map New forecast layout! Learn more

10-Day Weather Forecast

Advertisements
Track Severe Weather on mobile